createdAt,value
2022-08-06T00:00:03.085Z,20.11
2022-08-06T00:02:29.290Z,20.03
2022-08-06T00:05:01.431Z,20.24
2022-08-06T00:07:35.751Z,20.23
2022-08-06T00:10:13.610Z,20.25
2022-08-06T00:12:41.665Z,20.13
2022-08-06T00:15:13.387Z,19.97
2022-08-06T00:17:43.300Z,19.93
2022-08-06T00:20:25.516Z,19.95
2022-08-06T00:23:03.517Z,20.07
2022-08-06T00:25:35.732Z,20.19
2022-08-06T00:28:11.650Z,20.13
2022-08-06T00:30:38.659Z,20.09
2022-08-06T00:33:05.309Z,20.16
2022-08-06T00:35:32.978Z,20.25
2022-08-06T00:38:03.050Z,20.22
2022-08-06T00:40:32.599Z,20.12
2022-08-06T00:43:09.139Z,20.17
2022-08-06T00:45:37.893Z,19.98
2022-08-06T00:48:09.252Z,20.11
2022-08-06T00:50:55.853Z,20.08
2022-08-06T00:53:22.568Z,20.00
2022-08-06T00:55:59.913Z,19.94
2022-08-06T00:58:28.944Z,19.90
2022-08-06T01:01:16.441Z,19.73
2022-08-06T01:03:51.522Z,19.68
2022-08-06T01:06:55.867Z,19.69
2022-08-06T01:09:10.173Z,19.61
2022-08-06T01:11:39.554Z,19.56
2022-08-06T01:14:10.145Z,19.35
2022-08-06T01:16:58.523Z,19.36
2022-08-06T01:21:36.682Z,19.37
2022-08-06T01:23:10.772Z,19.19
2022-08-06T01:26:18.740Z,19.06
2022-08-06T01:28:54.362Z,19.08
2022-08-06T01:31:35.843Z,19.12
2022-08-06T01:34:13.982Z,19.05
2022-08-06T01:36:48.986Z,19.10
2022-08-06T01:39:22.977Z,19.07
2022-08-06T01:42:11.604Z,19.01
2022-08-06T01:44:48.237Z,19.03
2022-08-06T01:47:22.034Z,19.10
2022-08-06T01:50:03.762Z,19.03
2022-08-06T01:52:38.395Z,18.89
2022-08-06T01:55:16.123Z,18.68
2022-08-06T01:58:19.560Z,18.61
2022-08-06T02:00:46.400Z,18.77
2022-08-06T02:03:39.049Z,18.63
2022-08-06T02:06:31.308Z,18.58
2022-08-06T02:09:16.258Z,18.54
2022-08-06T02:12:08.392Z,18.45
2022-08-06T02:14:43.747Z,18.22
2022-08-06T02:17:15.365Z,18.22
2022-08-06T02:20:05.018Z,18.23
2022-08-06T02:22:42.557Z,18.41
2022-08-06T02:25:22.538Z,18.48
2022-08-06T02:28:02.133Z,18.38
2022-08-06T02:30:42.545Z,18.37
2022-08-06T02:33:18.320Z,18.13
2022-08-06T02:36:26.915Z,17.96
2022-08-06T02:39:04.729Z,18.15
2022-08-06T02:42:08.558Z,18.15
2022-08-06T02:45:04.740Z,18.30
2022-08-06T02:48:02.418Z,18.22
2022-08-06T02:50:40.680Z,18.11
2022-08-06T02:53:23.891Z,18.21
2022-08-06T02:56:06.510Z,18.18
2022-08-06T02:58:57.321Z,18.28
2022-08-06T03:01:43.748Z,18.10
2022-08-06T03:04:14.466Z,18.13
2022-08-06T03:06:47.765Z,18.16
2022-08-06T03:09:20.090Z,18.19
2022-08-06T03:11:49.513Z,18.19
2022-08-06T03:15:03.574Z,18.17
2022-08-06T03:17:08.918Z,18.11
2022-08-06T03:19:54.410Z,18.11
2022-08-06T03:22:35.389Z,18.04
2022-08-06T03:25:14.118Z,18.10
2022-08-06T03:27:45.391Z,18.09
2022-08-06T03:30:30.510Z,18.05
2022-08-06T03:33:42.014Z,18.02
2022-08-06T03:36:04.940Z,17.98
2022-08-06T03:38:44.097Z,18.06
2022-08-06T03:41:18.117Z,18.03
2022-08-06T03:43:56.724Z,17.98
2022-08-06T03:47:04.836Z,17.86
2022-08-06T03:49:43.991Z,17.71
2022-08-06T03:52:22.782Z,17.73
2022-08-06T03:55:04.265Z,17.79
2022-08-06T03:57:50.160Z,17.82
2022-08-06T04:00:28.138Z,17.64
2022-08-06T04:03:03.095Z,17.56
2022-08-06T04:05:33.847Z,17.53
2022-08-06T04:08:08.592Z,17.62
2022-08-06T04:10:42.905Z,17.66
2022-08-06T04:14:06.247Z,17.66
2022-08-06T04:16:14.892Z,17.66
2022-08-06T04:18:49.748Z,17.58
2022-08-06T04:22:59.712Z,17.64
2022-08-06T04:24:09.917Z,17.61
2022-08-06T04:26:40.917Z,17.67
2022-08-06T04:29:13.499Z,17.64
2022-08-06T04:32:13.002Z,17.72
2022-08-06T04:36:03.311Z,17.63
2022-08-06T04:37:26.939Z,17.59
2022-08-06T04:39:59.069Z,17.66
2022-08-06T04:42:27.283Z,17.55
2022-08-06T04:45:00.111Z,17.63
2022-08-06T04:47:41.722Z,17.53
2022-08-06T04:50:11.782Z,17.61
2022-08-06T04:52:48.183Z,17.52
2022-08-06T04:55:24.201Z,17.57
2022-08-06T04:57:57.297Z,17.61
2022-08-06T05:01:03.820Z,17.47
2022-08-06T05:04:07.622Z,17.41
2022-08-06T05:06:23.565Z,17.44
2022-08-06T05:09:02.331Z,17.47
2022-08-06T05:11:58.386Z,17.35
2022-08-06T05:14:39.888Z,17.53
2022-08-06T05:17:14.422Z,17.44
2022-08-06T05:20:00.239Z,17.65
2022-08-06T05:22:53.604Z,17.70
2022-08-06T05:25:22.610Z,17.70
2022-08-06T05:28:10.578Z,17.65
2022-08-06T05:30:48.387Z,17.74
2022-08-06T05:33:37.442Z,17.94
2022-08-06T05:36:11.956Z,17.74
2022-08-06T05:38:58.834Z,17.49
2022-08-06T05:41:30.601Z,17.56
2022-08-06T05:44:02.416Z,17.66
2022-08-06T05:47:12.277Z,17.62
2022-08-06T05:50:01.015Z,17.58
2022-08-06T05:52:38.290Z,17.70
2022-08-06T05:55:16.859Z,17.91
2022-08-06T05:57:54.008Z,17.82
2022-08-06T06:00:32.420Z,17.69
2022-08-06T06:03:24.558Z,17.16
2022-08-06T06:06:04.586Z,17.16
2022-08-06T06:08:38.770Z,17.30
2022-08-06T06:11:10.088Z,17.37
2022-08-06T06:13:59.603Z,17.11
2022-08-06T06:16:42.147Z,17.17
2022-08-06T06:19:39.333Z,17.29
2022-08-06T06:22:17.347Z,17.41
2022-08-06T06:24:55.184Z,17.42
2022-08-06T06:27:50.773Z,17.60
2022-08-06T06:30:40.062Z,17.68
2022-08-06T06:33:51.485Z,17.66
2022-08-06T06:36:33.379Z,17.85
2022-08-06T06:39:14.989Z,17.89
2022-08-06T06:41:55.930Z,17.92
2022-08-06T06:45:04.572Z,17.95
2022-08-06T06:47:37.073Z,18.27
2022-08-06T06:50:17.101Z,18.44
2022-08-06T06:52:49.793Z,18.39
2022-08-06T06:55:55.418Z,18.44
2022-08-06T06:58:47.569Z,18.68
2022-08-06T07:01:27.882Z,18.64
2022-08-06T07:03:57.794Z,18.82
2022-08-06T07:06:32.264Z,19.03
2022-08-06T07:09:39.473Z,19.13
2022-08-06T07:12:19.844Z,19.09
2022-08-06T07:15:00.596Z,19.07
2022-08-06T07:17:46.127Z,19.10
2022-08-06T07:20:25.968Z,19.37
2022-08-06T07:24:03.977Z,19.26
2022-08-06T07:25:54.139Z,19.53
2022-08-06T07:28:28.255Z,19.63
2022-08-06T07:31:04.227Z,19.65
2022-08-06T07:34:01.292Z,19.87
2022-08-06T07:36:27.401Z,19.97
2022-08-06T07:39:03.308Z,20.12
2022-08-06T07:42:08.013Z,20.17
2022-08-06T07:44:29.159Z,20.15
2022-08-06T07:47:23.420Z,20.12
2022-08-06T07:50:00.130Z,20.10
2022-08-06T07:52:29.754Z,20.00
2022-08-06T07:55:00.434Z,20.22
2022-08-06T07:57:32.679Z,20.03
2022-08-06T08:00:16.787Z,20.15
2022-08-06T08:03:05.447Z,20.07
2022-08-06T08:06:00.150Z,20.16
2022-08-06T08:08:30.639Z,20.24
2022-08-06T08:10:58.505Z,20.46
2022-08-06T08:13:41.435Z,20.51
2022-08-06T08:16:13.103Z,20.70
2022-08-06T08:18:47.240Z,20.78
2022-08-06T08:21:16.204Z,20.87
2022-08-06T08:23:46.784Z,20.98
2022-08-06T08:26:13.907Z,20.99
2022-08-06T08:28:41.009Z,21.07
2022-08-06T08:31:21.006Z,21.26
2022-08-06T08:33:53.826Z,21.01
2022-08-06T08:36:30.610Z,20.94
2022-08-06T08:38:58.796Z,21.20
2022-08-06T08:41:48.435Z,21.13
2022-08-06T08:44:26.829Z,21.21
2022-08-06T08:46:59.379Z,21.36
2022-08-06T08:49:48.454Z,21.47
2022-08-06T08:52:32.198Z,21.30
2022-08-06T08:57:08.193Z,21.20
2022-08-06T08:58:40.018Z,21.36
2022-08-06T09:00:41.767Z,21.51
2022-08-06T09:03:20.044Z,21.71
2022-08-06T09:05:47.803Z,21.62
2022-08-06T09:08:18.983Z,21.67
2022-08-06T09:11:07.093Z,21.99
2022-08-06T09:13:51.374Z,21.85
2022-08-06T09:16:31.448Z,21.91
2022-08-06T09:18:59.790Z,22.02
2022-08-06T09:21:28.552Z,22.06
2022-08-06T09:23:59.349Z,22.14
2022-08-06T09:26:39.957Z,22.23
2022-08-06T09:29:31.837Z,22.49
2022-08-06T09:32:15.517Z,22.46
2022-08-06T09:34:46.673Z,22.28
2022-08-06T09:37:44.406Z,22.19
2022-08-06T09:40:20.810Z,22.38
2022-08-06T09:42:54.726Z,22.34
2022-08-06T09:45:43.023Z,22.12
2022-08-06T09:48:17.275Z,22.00
2022-08-06T09:50:47.751Z,22.25
2022-08-06T09:53:21.602Z,22.38
2022-08-06T09:55:57.783Z,22.55
2022-08-06T09:58:37.424Z,22.71
2022-08-06T10:01:22.857Z,22.66
2022-08-06T10:04:04.135Z,22.78
2022-08-06T10:06:51.999Z,22.86
2022-08-06T10:09:41.363Z,22.78
2022-08-06T10:12:26.148Z,22.99
2022-08-06T10:14:56.312Z,22.93
2022-08-06T10:17:25.387Z,22.71
2022-08-06T10:20:19.154Z,22.80
2022-08-06T10:22:58.335Z,22.68
2022-08-06T10:25:29.508Z,22.99
2022-08-06T10:27:59.939Z,23.31
2022-08-06T10:30:33.434Z,23.29
2022-08-06T10:33:22.320Z,23.31
2022-08-06T10:35:55.484Z,23.27
2022-08-06T10:38:34.452Z,23.18
2022-08-06T10:41:13.551Z,23.39
2022-08-06T10:44:16.075Z,23.10
2022-08-06T10:46:53.687Z,23.11
2022-08-06T10:50:23.830Z,23.22
2022-08-06T10:52:16.567Z,23.37
2022-08-06T10:54:44.978Z,23.48
2022-08-06T10:57:23.184Z,23.42
2022-08-06T11:00:06.710Z,23.51
2022-08-06T11:03:01.652Z,23.57
2022-08-06T11:05:53.784Z,23.66
2022-08-06T11:08:59.663Z,23.62
2022-08-06T11:12:14.596Z,23.80
2022-08-06T11:14:44.841Z,23.68
2022-08-06T11:17:13.472Z,23.90
2022-08-06T11:19:46.611Z,24.11
2022-08-06T11:22:39.167Z,24.27
2022-08-06T11:25:14.345Z,24.32
2022-08-06T11:28:05.327Z,24.38
2022-08-06T11:30:39.962Z,24.48
2022-08-06T11:33:11.715Z,24.53
2022-08-06T11:35:51.529Z,24.68
2022-08-06T11:38:48.677Z,24.43
2022-08-06T11:41:54.872Z,24.48
2022-08-06T11:44:18.511Z,24.76
2022-08-06T11:46:50.603Z,24.85
2022-08-06T11:49:43.020Z,24.46
2022-08-06T11:52:39.397Z,24.26
2022-08-06T11:55:23.266Z,24.18
2022-08-06T11:58:21.217Z,24.45
2022-08-06T12:01:33.520Z,24.41
2022-08-06T12:03:52.186Z,24.81
2022-08-06T12:06:29.393Z,24.69
2022-08-06T12:09:23.887Z,24.63
2022-08-06T12:12:30.089Z,24.63
2022-08-06T12:15:06.379Z,24.67
2022-08-06T12:17:45.323Z,24.90
2022-08-06T12:20:46.351Z,24.90
2022-08-06T12:23:53.856Z,25.11
2022-08-06T12:26:11.219Z,25.26
2022-08-06T12:28:38.543Z,25.44
2022-08-06T12:31:35.106Z,25.34
2022-08-06T12:33:52.709Z,24.94
2022-08-06T12:36:32.606Z,24.65
2022-08-06T12:39:10.730Z,24.71
2022-08-06T12:41:47.535Z,24.77
2022-08-06T12:44:20.330Z,24.90
2022-08-06T12:47:14.540Z,24.94
2022-08-06T12:49:44.236Z,25.03
2022-08-06T12:52:18.472Z,25.28
2022-08-06T12:54:46.276Z,25.48
2022-08-06T12:57:59.956Z,25.48
2022-08-06T13:00:18.929Z,25.58
2022-08-06T13:02:57.905Z,25.65
2022-08-06T13:05:31.329Z,25.67
2022-08-06T13:08:05.685Z,25.54
2022-08-06T13:10:34.085Z,25.65
2022-08-06T13:14:13.955Z,25.48
2022-08-06T13:16:12.001Z,25.72
2022-08-06T13:19:19.476Z,26.29
2022-08-06T13:21:58.971Z,27.17
2022-08-06T13:24:31.022Z,28.71
2022-08-06T13:27:02.937Z,30.18
2022-08-06T13:30:33.808Z,32.11
2022-08-06T13:32:33.521Z,33.64
2022-08-06T13:35:18.252Z,32.57
2022-08-06T13:37:55.910Z,32.76
2022-08-06T13:40:51.912Z,33.52
2022-08-06T13:43:50.722Z,31.97
2022-08-06T13:46:28.056Z,30.72
2022-08-06T13:49:01.965Z,30.00
2022-08-06T13:51:34.311Z,29.63
2022-08-06T13:54:14.016Z,29.38
2022-08-06T13:56:44.225Z,29.45
2022-08-06T13:59:17.483Z,30.21
2022-08-06T14:01:47.215Z,31.17
2022-08-06T14:04:19.130Z,32.13
2022-08-06T14:06:48.742Z,32.97
2022-08-06T14:09:20.865Z,33.15
2022-08-06T14:11:58.478Z,33.59
2022-08-06T14:14:27.902Z,34.03
2022-08-06T14:17:00.340Z,34.79
2022-08-06T14:20:15.860Z,35.17
2022-08-06T14:22:18.180Z,35.66
2022-08-06T14:24:53.048Z,33.86
2022-08-06T14:27:24.268Z,32.38
2022-08-06T14:30:28.500Z,32.05
2022-08-06T14:32:40.283Z,32.09
2022-08-06T14:35:08.662Z,32.00
2022-08-06T14:37:50.074Z,32.26
2022-08-06T14:40:59.464Z,32.11
2022-08-06T14:43:55.151Z,33.07
2022-08-06T14:46:31.743Z,33.51
2022-08-06T14:49:09.017Z,32.48
2022-08-06T14:52:19.441Z,31.69
2022-08-06T14:54:32.025Z,31.06
2022-08-06T14:57:14.950Z,30.75
2022-08-06T14:59:49.111Z,30.22
2022-08-06T15:02:25.016Z,30.24
2022-08-06T15:04:54.116Z,28.99
2022-08-06T15:07:35.629Z,28.35
2022-08-06T15:10:27.591Z,28.21
2022-08-06T15:13:01.031Z,28.24
2022-08-06T15:15:46.655Z,27.84
2022-08-06T15:18:40.623Z,27.69
2022-08-06T15:21:05.911Z,27.99
2022-08-06T15:23:53.759Z,29.06
2022-08-06T15:26:46.704Z,28.41
2022-08-06T15:29:15.162Z,27.85
2022-08-06T15:31:46.691Z,27.34
2022-08-06T15:34:20.033Z,26.80
2022-08-06T15:37:01.623Z,26.57
2022-08-06T15:39:52.822Z,26.62
2022-08-06T15:42:28.462Z,26.56
2022-08-06T15:44:55.984Z,26.46
2022-08-06T15:47:32.095Z,26.41
2022-08-06T15:50:32.695Z,26.29
2022-08-06T15:53:22.861Z,25.83
2022-08-06T15:55:58.618Z,25.88
2022-08-06T15:58:28.821Z,25.71
2022-08-06T16:01:04.157Z,25.93
2022-08-06T16:03:56.439Z,25.98
2022-08-06T16:06:25.438Z,25.91
2022-08-06T16:08:54.231Z,25.70
2022-08-06T16:11:27.146Z,25.84
2022-08-06T16:14:13.818Z,25.58
2022-08-06T16:16:46.581Z,25.69
2022-08-06T16:19:21.535Z,25.68
2022-08-06T16:21:49.387Z,25.88
2022-08-06T16:24:16.362Z,25.86
2022-08-06T16:26:50.443Z,26.03
2022-08-06T16:29:25.199Z,26.49
2022-08-06T16:31:54.927Z,26.64
2022-08-06T16:34:29.816Z,27.23
2022-08-06T16:37:00.657Z,28.10
2022-08-06T16:39:35.140Z,29.49
2022-08-06T16:42:10.117Z,30.21
2022-08-06T16:48:04.305Z,30.44
2022-08-06T16:50:19.154Z,29.53
2022-08-06T16:54:08.323Z,28.86
2022-08-06T16:55:42.479Z,28.76
2022-08-06T17:03:46.033Z,28.42
2022-08-06T17:06:17.753Z,28.63
2022-08-06T17:08:54.235Z,29.03
2022-08-06T17:11:46.015Z,28.88
2022-08-06T17:14:13.181Z,28.94
2022-08-06T17:16:41.996Z,29.66
2022-08-06T17:19:17.543Z,30.16
2022-08-06T17:24:38.168Z,30.54
2022-08-06T17:27:15.057Z,30.01
2022-08-06T17:32:36.929Z,28.53
2022-08-06T17:35:16.355Z,28.12
2022-08-06T17:37:50.351Z,27.84
2022-08-06T17:40:30.924Z,27.59
2022-08-06T17:43:12.934Z,27.27
2022-08-06T17:46:00.213Z,26.67
2022-08-06T17:48:32.314Z,26.49
2022-08-06T17:51:09.624Z,26.33
2022-08-06T17:53:52.287Z,25.96
2022-08-06T17:56:30.368Z,25.78
2022-08-06T17:59:16.453Z,25.54
2022-08-06T18:01:49.982Z,25.22
2022-08-06T18:04:31.068Z,25.05
2022-08-06T18:07:11.624Z,24.71
2022-08-06T18:10:10.078Z,24.53
2022-08-06T18:12:30.182Z,24.51
2022-08-06T18:14:59.302Z,24.33
2022-08-06T18:17:59.192Z,24.06
2022-08-06T18:20:16.418Z,24.01
2022-08-06T18:22:55.159Z,23.86
2022-08-06T18:25:29.781Z,23.77
2022-08-06T18:28:17.244Z,23.41
2022-08-06T18:31:04.619Z,23.34
2022-08-06T18:33:32.425Z,23.26
2022-08-06T18:35:59.574Z,23.24
2022-08-06T18:38:31.337Z,22.84
2022-08-06T18:41:06.344Z,22.80
2022-08-06T18:43:58.134Z,22.70
2022-08-06T18:47:02.116Z,22.54
2022-08-06T18:49:27.201Z,22.38
2022-08-06T18:52:00.927Z,22.32
2022-08-06T18:54:27.945Z,22.23
2022-08-06T18:56:56.852Z,22.00
2022-08-06T18:59:28.878Z,21.97
2022-08-06T19:01:58.807Z,21.86
2022-08-06T19:04:29.934Z,21.85
2022-08-06T19:07:03.753Z,21.77
2022-08-06T19:09:39.550Z,21.71
2022-08-06T19:12:13.822Z,21.67
2022-08-06T19:14:49.979Z,21.56
2022-08-06T19:17:22.575Z,21.46
2022-08-06T19:20:19.421Z,21.25
2022-08-06T19:22:53.335Z,21.31
2022-08-06T19:25:22.566Z,21.23
2022-08-06T19:28:30.526Z,21.19
2022-08-06T19:30:45.747Z,21.09
2022-08-06T19:33:15.590Z,21.06
2022-08-06T19:36:03.500Z,21.05
2022-08-06T19:38:34.031Z,20.80
2022-08-06T19:41:02.421Z,20.83
2022-08-06T19:44:26.182Z,20.84
2022-08-06T19:46:30.786Z,20.87
2022-08-06T19:49:03.455Z,20.73
2022-08-06T19:52:03.950Z,20.74
2022-08-06T19:54:25.050Z,20.58
2022-08-06T19:56:52.911Z,20.48
2022-08-06T20:00:53.290Z,20.37
2022-08-06T20:02:15.228Z,20.24
2022-08-06T20:04:42.851Z,20.18
2022-08-06T20:07:24.025Z,20.08
2022-08-06T20:10:01.957Z,19.96
2022-08-06T20:12:39.076Z,20.00
2022-08-06T20:15:27.268Z,19.99
2022-08-06T20:17:55.909Z,19.79
2022-08-06T20:20:28.192Z,19.94
2022-08-06T20:22:58.193Z,19.89
2022-08-06T20:25:26.504Z,19.81
2022-08-06T20:29:09.789Z,19.86
2022-08-06T20:30:49.556Z,19.62
2022-08-06T20:33:24.632Z,19.52
2022-08-06T20:35:57.881Z,19.66
2022-08-06T20:38:39.980Z,19.70
2022-08-06T20:41:57.159Z,19.59
2022-08-06T20:44:08.515Z,19.46
2022-08-06T20:49:29.617Z,19.34
2022-08-06T20:52:17.812Z,19.33
2022-08-06T20:54:51.991Z,19.55
2022-08-06T20:57:27.281Z,19.39
2022-08-06T20:59:59.490Z,19.43
2022-08-06T21:02:32.930Z,19.35
2022-08-06T21:05:12.874Z,19.40
2022-08-06T21:07:56.634Z,19.40
2022-08-06T21:10:31.579Z,19.47
2022-08-06T21:13:08.121Z,19.30
2022-08-06T21:15:54.658Z,19.33
2022-08-06T21:18:26.468Z,19.16
2022-08-06T21:20:56.036Z,19.18
2022-08-06T21:23:41.565Z,19.05
2022-08-06T21:26:15.949Z,18.93
2022-08-06T21:28:54.088Z,18.95
2022-08-06T21:31:27.340Z,18.86
2022-08-06T21:33:57.091Z,18.91
2022-08-06T21:36:25.949Z,19.03
2022-08-06T21:38:57.314Z,18.95
2022-08-06T21:41:56.024Z,18.94
2022-08-06T21:44:27.691Z,18.94
2022-08-06T21:46:58.964Z,18.81
2022-08-06T21:50:04.198Z,18.84
2022-08-06T21:52:27.641Z,18.89
2022-08-06T21:54:57.746Z,18.87
2022-08-06T21:57:25.399Z,18.86
2022-08-06T21:59:53.253Z,18.82
2022-08-06T22:02:26.406Z,18.79
2022-08-06T22:05:00.331Z,18.69
2022-08-06T22:08:06.717Z,18.55
2022-08-06T22:10:28.928Z,18.57
2022-08-06T22:13:12.260Z,18.50
2022-08-06T22:15:45.967Z,18.51
2022-08-06T22:18:17.049Z,18.51
2022-08-06T22:20:46.009Z,18.46
2022-08-06T22:23:17.652Z,18.48
2022-08-06T22:25:50.745Z,18.35
2022-08-06T22:28:23.899Z,18.37
2022-08-06T22:31:05.471Z,18.15
2022-08-06T22:33:45.368Z,18.35
2022-08-06T22:36:34.538Z,18.29
2022-08-06T22:39:05.197Z,18.23
2022-08-06T22:41:42.721Z,18.30
2022-08-06T22:44:34.230Z,18.18
2022-08-06T22:47:06.662Z,18.09
2022-08-06T22:50:00.326Z,17.85
2022-08-06T22:52:51.258Z,17.67
2022-08-06T22:55:18.082Z,17.78
2022-08-06T22:58:48.506Z,17.52
2022-08-06T23:00:36.752Z,17.55
2022-08-06T23:03:13.393Z,17.60
2022-08-06T23:05:46.870Z,17.69
2022-08-06T23:08:17.307Z,17.81
2022-08-06T23:10:48.315Z,17.71
2022-08-06T23:13:25.153Z,17.77
2022-08-06T23:15:52.203Z,17.66
2022-08-06T23:18:22.535Z,17.64
2022-08-06T23:21:22.064Z,17.48
2022-08-06T23:23:53.755Z,17.53
2022-08-06T23:26:31.078Z,17.27
2022-08-06T23:29:04.301Z,17.17
2022-08-06T23:31:37.932Z,17.19
2022-08-06T23:34:34.218Z,17.25
2022-08-06T23:36:57.453Z,17.09
2022-08-06T23:39:28.828Z,16.90
2022-08-06T23:42:22.146Z,16.75
2022-08-06T23:44:51.911Z,16.95
2022-08-06T23:47:54.583Z,17.12
2022-08-06T23:50:09.619Z,17.18
2022-08-06T23:52:41.804Z,17.14
2022-08-06T23:55:25.832Z,17.14
2022-08-06T23:57:57.615Z,17.23
